Flight Track Log - Related Links

Times and Time Zones

All times are in EDT time to prevent confusion due to time zone crossing. See the ASQ5750 flight status page for this flight to view local times or setup timezone preferences in your user account.

Time Position Orientation Groundspeed Altitude Reporting Facility
EDT Latitude Longitude Course Direction KTS MPH feet Rate Location/Type
Tue 12:14:12 PM 36.8806 -76.2150 300° West 138 159 800  Level Washington Center
Tue 12:15:37 PM 36.8364 -76.2797 230° Southwest 201 231 3,600 1,844 Climbing Washington Center
Tue 12:16:00 PM 37.0079 -76.4412 321° Northwest  Level FlightAware Approximate
Tue 12:17:00 PM 37.0495 -76.5220 300° West  Level FlightAware Approximate
Tue 12:17:24 PM 36.8814 -76.3969 296° West 244 281 6,700  Level Washington Center
Tue 12:18:00 PM 37.0878 -76.6064 300° West  Level FlightAware Approximate
Tue 12:18:22 PM 36.9289 -76.4675 310° West 263 303 9,300  Level Washington Center
Tue 12:19:00 PM 37.1261 -76.6907 300° West  Level FlightAware Approximate
Tue 12:19:23 PM 36.9764 -76.5461 307° West 270 311 10,800  Level Washington Center
Tue 12:20:24 PM 37.0319 -76.6353 308° West 298 343 11,900 1,279 Climbing Washington Center
Tue 12:21:25 PM 37.0936 -76.7325 309° West 334 384 13,400 1,373 Climbing Washington Center
Tue 12:22:22 PM 37.1511 -76.8294 307° West 347 399 14,600 1,231 Climbing Washington Center
Tue 12:23:22 PM 37.2147 -76.9322 308° West 358 412 15,800 694 Climbing Washington Center
Tue 12:24:23 PM 37.2883 -77.0536 307° West 391 450 16,000 99 Climbing Washington Center
Tue 12:25:23 PM 37.3581 -77.1544 311° West 391 450 16,000  Level Washington Center
Tue 12:26:24 PM 37.4300 -77.2342 319° Northwest 385 443 16,000 -151 Level Washington Center
Tue 12:27:22 PM 37.5100 -77.3222 319° Northwest 380 437 15,700 -333 Descending Washington Center
Tue 12:29:24 PM 37.6839 -77.4208 336° Northwest 346 398 15,000 -400 Descending Washington Center
Tue 12:30:22 PM 37.7664 -77.4675 336° Northwest 334 384 14,500 -508 Descending Washington Center
Tue 12:31:22 PM 37.8408 -77.5192 331° Northwest 320 368 14,000 -248 Descending Washington Center
Tue 12:32:23 PM 37.9022 -77.5839 320° Northwest 305 351 14,000  Level Washington Center
Tue 12:33:23 PM 37.9839 -77.5625 12° North 276 318 14,000  Level Washington Center
Tue 12:34:24 PM 38.0617 -77.5222 22° Northeast 271 312 14,000 -1,041 Level Washington Center
Tue 12:35:24 PM 38.1419 -77.4742 25° Northeast 286 329 11,900 -2,034 Descending Washington Center
Tue 12:36:22 PM 38.2261 -77.4233 25° Northeast 300 345 10,000 -1,412 Descending Washington Center
Tue 12:37:23 PM 38.2803 -77.4272 357° North 266 306 9,100 -1,328 Descending Washington Center
Tue 12:38:24 PM 38.3525 -77.4689 336° Northwest 245 282 7,300 -1,462 Descending Washington Center
Tue 12:39:22 PM 38.4275 -77.4733 357° North 251 289 6,200 -1,513 Descending Washington Center
Tue 12:40:23 PM 38.5025 -77.4728 360° North 261 300 4,300 -1,091 Descending Washington Center
Tue 12:41:23 PM 38.5714 -77.4692 North 255 293 4,000 -629 Descending Washington Center
Tue 12:42:27 PM 38.6500 -77.4667 North 230 265 3,000 -508 Descending Potomac TRACON
Tue 12:43:21 PM 38.7000 -77.4667 360° North 185 213 3,000  Level Potomac TRACON
Tue 12:44:21 PM 38.7500 -77.4667 360° North 190 219 3,000  Level Potomac TRACON

Login

Don't have an account? Register now (free) for customized features, flight alerts, and more!